createdAt,value
2022-12-11T00:00:00.721Z,54.5
2022-12-11T00:01:00.527Z,54.4
2022-12-11T00:02:00.692Z,54.4
2022-12-11T00:03:00.604Z,54.5
2022-12-11T00:04:00.589Z,54.7
2022-12-11T00:05:00.979Z,54.8
2022-12-11T00:06:00.520Z,54.8
2022-12-11T00:07:00.504Z,54.8
2022-12-11T00:08:00.529Z,54.8
2022-12-11T00:09:00.493Z,54.5
2022-12-11T00:10:00.501Z,54.5
2022-12-11T00:11:00.696Z,54.5
2022-12-11T00:12:00.471Z,54.5
2022-12-11T00:13:00.520Z,54.5
2022-12-11T00:14:00.441Z,54.6
2022-12-11T00:15:00.473Z,54.5
2022-12-11T00:16:00.488Z,54.5
2022-12-11T00:17:00.628Z,54.5
2022-12-11T00:18:00.480Z,54.5
2022-12-11T00:19:00.465Z,54.5
2022-12-11T00:20:00.515Z,54.6
2022-12-11T00:21:00.449Z,54.5
2022-12-11T00:22:00.440Z,54.2
2022-12-11T00:23:00.679Z,54.3
2022-12-11T00:24:00.568Z,54.3
2022-12-11T00:25:00.468Z,54.3
2022-12-11T00:26:00.523Z,54.3
2022-12-11T00:27:00.498Z,54.5
2022-12-11T00:28:00.601Z,54.4
2022-12-11T00:29:00.765Z,54.4
2022-12-11T00:30:00.501Z,54.4
2022-12-11T00:31:00.453Z,54.5
2022-12-11T00:32:00.554Z,54.4
2022-12-11T00:33:00.477Z,54.3
2022-12-11T00:34:00.635Z,54.3
2022-12-11T00:35:00.858Z,54.3
2022-12-11T00:36:00.472Z,54.3
2022-12-11T00:37:00.532Z,54.3
2022-12-11T00:38:00.610Z,54.3
2022-12-11T00:39:00.530Z,54.2
2022-12-11T00:40:00.607Z,54.2
2022-12-11T00:41:00.651Z,54.1
2022-12-11T00:42:00.505Z,54.2
2022-12-11T00:43:00.789Z,54.2
2022-12-11T00:44:00.908Z,54.2
2022-12-11T00:45:00.632Z,54.2
2022-12-11T00:46:00.751Z,54.1
2022-12-11T00:47:00.887Z,54.0
2022-12-11T00:48:00.466Z,54.0
2022-12-11T00:49:00.607Z,54.2
2022-12-11T00:50:00.717Z,54.1
2022-12-11T00:51:00.508Z,54.1
2022-12-11T00:52:00.508Z,54.1
2022-12-11T00:53:00.710Z,54.0
2022-12-11T00:54:00.474Z,54.0
2022-12-11T00:55:00.497Z,54.2
2022-12-11T00:56:00.577Z,54.1
2022-12-11T00:57:00.622Z,54.1
2022-12-11T00:58:00.715Z,54.1
2022-12-11T00:59:00.688Z,54.1
2022-12-11T01:00:00.569Z,54.0
2022-12-11T01:01:00.775Z,54.1
2022-12-11T01:02:00.520Z,54.1
2022-12-11T01:03:00.540Z,54.1
2022-12-11T01:04:00.592Z,54.1
2022-12-11T01:05:00.715Z,54.1
2022-12-11T01:06:00.533Z,54.0
2022-12-11T01:07:00.526Z,53.9
2022-12-11T01:08:00.600Z,53.9
2022-12-11T01:09:00.567Z,53.9
2022-12-11T01:10:00.514Z,53.8
2022-12-11T01:11:00.736Z,53.8
2022-12-11T01:12:00.452Z,53.8
2022-12-11T01:13:00.484Z,53.8
2022-12-11T01:14:00.493Z,53.7
2022-12-11T01:15:00.729Z,53.8
2022-12-11T01:16:00.514Z,53.8
2022-12-11T01:17:00.752Z,53.8
2022-12-11T01:18:00.605Z,53.8
2022-12-11T01:19:00.490Z,53.9
2022-12-11T01:20:00.515Z,54.0
2022-12-11T01:21:00.490Z,54.1
2022-12-11T01:22:00.476Z,54.1
2022-12-11T01:23:00.614Z,54.0
2022-12-11T01:24:00.541Z,54.0
2022-12-11T01:25:00.547Z,53.9
2022-12-11T01:26:00.511Z,53.8
2022-12-11T01:27:00.617Z,53.9
2022-12-11T01:28:00.485Z,53.8
2022-12-11T01:29:00.711Z,53.9
2022-12-11T01:30:00.888Z,53.9
2022-12-11T01:31:00.777Z,54.0
2022-12-11T01:32:00.542Z,53.9
2022-12-11T01:33:00.524Z,54.0
2022-12-11T01:34:00.579Z,54.0
2022-12-11T01:35:00.678Z,53.9
2022-12-11T01:36:00.523Z,54.0
2022-12-11T01:37:00.513Z,54.1
2022-12-11T01:38:00.452Z,54.1
2022-12-11T01:39:00.446Z,54.1
2022-12-11T01:40:00.477Z,54.1
2022-12-11T01:41:00.749Z,54.2
2022-12-11T01:42:00.488Z,54.1
2022-12-11T01:43:00.479Z,54.2
2022-12-11T01:44:00.520Z,54.2
2022-12-11T01:45:00.513Z,54.2
2022-12-11T01:46:00.719Z,54.2
2022-12-11T01:47:00.731Z,54.1
2022-12-11T01:48:00.560Z,54.2
2022-12-11T01:49:00.466Z,54.1
2022-12-11T01:50:00.577Z,54.1
2022-12-11T01:51:00.576Z,54.1
2022-12-11T01:52:00.498Z,54.1
2022-12-11T01:53:00.599Z,54.2
2022-12-11T01:54:00.530Z,54.2
2022-12-11T01:55:00.536Z,54.0
2022-12-11T01:56:00.581Z,54.0
2022-12-11T01:57:00.584Z,54.0
2022-12-11T01:58:00.456Z,54.1
2022-12-11T01:59:00.608Z,54.2
2022-12-11T02:00:00.604Z,54.3
2022-12-11T02:01:00.711Z,54.3
2022-12-11T02:02:00.533Z,54.3
2022-12-11T02:03:00.617Z,54.3
2022-12-11T02:04:00.704Z,54.3
2022-12-11T02:05:00.622Z,54.3
2022-12-11T02:06:00.519Z,54.3
2022-12-11T02:07:00.606Z,54.3
2022-12-11T02:08:00.589Z,54.3
2022-12-11T02:09:00.575Z,54.3
2022-12-11T02:10:00.490Z,54.3
2022-12-11T02:11:00.681Z,54.4
2022-12-11T02:12:00.546Z,54.5
2022-12-11T02:13:00.528Z,54.5
2022-12-11T02:14:00.449Z,54.3
2022-12-11T02:15:00.453Z,54.4
2022-12-11T02:16:00.690Z,54.4
2022-12-11T02:17:00.850Z,54.4
2022-12-11T02:18:00.548Z,54.4
2022-12-11T02:19:00.477Z,54.5
2022-12-11T02:20:00.482Z,54.6
2022-12-11T02:21:00.601Z,54.7
2022-12-11T02:22:00.485Z,54.6
2022-12-11T02:23:00.707Z,54.5
2022-12-11T02:24:00.458Z,54.5
2022-12-11T02:25:00.536Z,54.4
2022-12-11T02:26:00.602Z,54.3
2022-12-11T02:27:00.503Z,54.2
2022-12-11T02:28:00.546Z,54.1
2022-12-11T02:29:00.757Z,54.1
2022-12-11T02:30:00.616Z,54.2
2022-12-11T02:31:00.634Z,54.1
2022-12-11T02:32:00.796Z,54.1
2022-12-11T02:33:00.481Z,54.1
2022-12-11T02:34:00.529Z,54.1
2022-12-11T02:35:00.828Z,54.1
2022-12-11T02:36:00.577Z,54.2
2022-12-11T02:37:00.481Z,54.1
2022-12-11T02:38:00.505Z,54.0
2022-12-11T02:39:00.606Z,54.0
2022-12-11T02:40:00.454Z,54.0
2022-12-11T02:41:00.665Z,54.0
2022-12-11T02:42:00.492Z,54.0
2022-12-11T02:43:00.509Z,53.9
2022-12-11T02:44:00.484Z,53.8
2022-12-11T02:45:00.636Z,53.8
2022-12-11T02:46:00.546Z,53.8
2022-12-11T02:47:00.700Z,53.8
2022-12-11T02:48:00.511Z,53.7
2022-12-11T02:49:00.523Z,53.6
2022-12-11T02:50:00.498Z,53.6
2022-12-11T02:51:00.596Z,53.7
2022-12-11T02:52:00.588Z,53.7
2022-12-11T02:53:00.686Z,53.7
2022-12-11T02:54:00.695Z,53.8
2022-12-11T02:55:00.495Z,53.8
2022-12-11T02:56:00.566Z,53.9
2022-12-11T02:57:00.464Z,54.0
2022-12-11T02:58:00.453Z,53.9
2022-12-11T02:59:00.757Z,53.9
2022-12-11T03:00:00.496Z,54.0
2022-12-11T03:01:00.532Z,53.9
2022-12-11T03:02:00.682Z,54.0
2022-12-11T03:03:00.498Z,54.0
2022-12-11T03:04:00.550Z,54.0
2022-12-11T03:05:00.638Z,54.0
2022-12-11T03:06:00.446Z,54.0
2022-12-11T03:07:00.500Z,54.0
2022-12-11T03:08:00.528Z,54.0
2022-12-11T03:09:00.506Z,54.1
2022-12-11T03:10:00.527Z,54.1
2022-12-11T03:11:00.635Z,54.1
2022-12-11T03:12:00.540Z,54.1
2022-12-11T03:13:00.502Z,54.0
2022-12-11T03:14:00.427Z,54.0
2022-12-11T03:15:00.506Z,53.9
2022-12-11T03:16:00.512Z,53.8
2022-12-11T03:17:00.658Z,53.8
2022-12-11T03:18:00.496Z,53.8
2022-12-11T03:19:00.494Z,53.9
2022-12-11T03:20:00.466Z,53.9
2022-12-11T03:21:00.496Z,54.0
2022-12-11T03:22:00.429Z,53.9
2022-12-11T03:23:00.584Z,53.8
2022-12-11T03:24:00.483Z,53.8
2022-12-11T03:25:00.488Z,53.8
2022-12-11T03:26:00.511Z,53.8
2022-12-11T03:27:01.072Z,53.8
2022-12-11T03:28:00.525Z,53.7
2022-12-11T03:29:00.623Z,53.8
2022-12-11T03:30:00.475Z,53.7
2022-12-11T03:31:00.526Z,53.6
2022-12-11T03:32:00.647Z,53.7
2022-12-11T03:33:00.521Z,53.6
2022-12-11T03:34:00.547Z,53.6
2022-12-11T03:35:00.618Z,53.6
2022-12-11T03:36:00.449Z,53.6
2022-12-11T03:37:00.446Z,53.5
2022-12-11T03:38:00.482Z,53.5
2022-12-11T03:39:00.499Z,53.5
2022-12-11T03:40:00.520Z,53.5
2022-12-11T03:41:00.575Z,53.5
2022-12-11T03:42:00.468Z,53.6
2022-12-11T03:43:00.510Z,53.7
2022-12-11T03:44:00.471Z,53.7
2022-12-11T03:45:00.511Z,53.8
2022-12-11T03:46:00.555Z,53.7
2022-12-11T03:47:00.622Z,53.8
2022-12-11T03:48:00.511Z,53.8
2022-12-11T03:49:00.517Z,53.9
2022-12-11T03:50:00.496Z,53.8
2022-12-11T03:51:00.509Z,53.8
2022-12-11T03:52:00.443Z,53.9
2022-12-11T03:53:00.613Z,54.2
2022-12-11T03:54:00.504Z,54.1
2022-12-11T03:55:00.441Z,54.0
2022-12-11T03:56:00.441Z,54.1
2022-12-11T03:57:00.467Z,54.0
2022-12-11T03:58:00.475Z,53.9
2022-12-11T03:59:00.638Z,53.7
2022-12-11T04:00:00.499Z,53.7
2022-12-11T04:01:00.511Z,53.7
2022-12-11T04:02:00.678Z,53.6
2022-12-11T04:03:00.529Z,53.5
2022-12-11T04:04:00.561Z,53.6
2022-12-11T04:05:00.610Z,53.4
2022-12-11T04:06:00.506Z,53.6
2022-12-11T04:07:00.584Z,53.8
2022-12-11T04:08:00.565Z,53.9
2022-12-11T04:09:00.535Z,53.8
2022-12-11T04:10:00.486Z,53.9
2022-12-11T04:11:00.673Z,54.0
2022-12-11T04:12:00.494Z,54.6
2022-12-11T04:13:00.500Z,54.5
2022-12-11T04:14:00.468Z,54.4
2022-12-11T04:15:00.476Z,54.4
2022-12-11T04:16:00.478Z,54.3
2022-12-11T04:17:00.586Z,54.2
2022-12-11T04:18:00.449Z,54.3
2022-12-11T04:19:00.491Z,54.2
2022-12-11T04:20:00.484Z,54.2
2022-12-11T04:21:00.475Z,54.1
2022-12-11T04:22:00.445Z,54.1
2022-12-11T04:23:00.613Z,54.2
2022-12-11T04:24:00.476Z,54.2
2022-12-11T04:25:00.469Z,54.2
2022-12-11T04:26:00.540Z,54.2
2022-12-11T04:27:00.506Z,54.1
2022-12-11T04:28:00.471Z,54.2
2022-12-11T04:29:00.602Z,54.1
2022-12-11T04:30:00.499Z,54.2
2022-12-11T04:31:00.566Z,54.1
2022-12-11T04:32:00.625Z,54.1
2022-12-11T04:33:00.462Z,54.1
2022-12-11T04:34:00.499Z,54.0
2022-12-11T04:35:00.604Z,54.1
2022-12-11T04:36:00.505Z,54.1
2022-12-11T04:37:00.553Z,54.0
2022-12-11T04:38:00.509Z,54.0
2022-12-11T04:39:00.470Z,54.0
2022-12-11T04:40:00.509Z,54.0
2022-12-11T04:41:00.631Z,54.1
2022-12-11T04:42:00.531Z,54.2
2022-12-11T04:43:00.567Z,54.0
2022-12-11T04:44:00.521Z,53.9
2022-12-11T04:45:00.499Z,53.8
2022-12-11T04:46:00.559Z,53.8
2022-12-11T04:47:00.648Z,53.8
2022-12-11T04:48:00.524Z,53.8
2022-12-11T04:49:00.534Z,53.6
2022-12-11T04:50:00.483Z,53.9
2022-12-11T04:51:00.476Z,53.9
2022-12-11T04:52:00.502Z,53.9
2022-12-11T04:53:00.662Z,53.6
2022-12-11T04:54:00.467Z,53.6
2022-12-11T04:55:00.439Z,53.6
2022-12-11T04:56:00.439Z,53.6
2022-12-11T04:57:00.472Z,53.5
2022-12-11T04:58:00.499Z,53.5
2022-12-11T04:59:00.646Z,53.5
2022-12-11T05:00:00.479Z,53.4
2022-12-11T05:01:00.479Z,53.5
2022-12-11T05:02:00.650Z,53.4
2022-12-11T05:03:00.514Z,53.4
2022-12-11T05:04:00.486Z,53.4
2022-12-11T05:05:00.607Z,53.4
2022-12-11T05:06:00.474Z,53.4
2022-12-11T05:07:00.490Z,53.4
2022-12-11T05:08:00.471Z,53.4
2022-12-11T05:09:00.500Z,53.3
2022-12-11T05:10:00.505Z,53.3
2022-12-11T05:11:00.613Z,53.6
2022-12-11T05:12:00.519Z,53.4
2022-12-11T05:13:00.519Z,53.4
2022-12-11T05:14:00.499Z,53.6
2022-12-11T05:15:00.493Z,54.1
2022-12-11T05:16:00.603Z,53.6
2022-12-11T05:17:00.693Z,53.5
2022-12-11T05:18:00.513Z,54.7
2022-12-11T05:19:00.457Z,55.4
2022-12-11T05:20:00.443Z,57.1
2022-12-11T05:21:00.530Z,55.7
2022-12-11T05:22:00.459Z,54.8
2022-12-11T05:23:00.628Z,54.4
2022-12-11T05:24:00.471Z,54.2
2022-12-11T05:25:00.499Z,54.1
2022-12-11T05:26:00.472Z,54.1
2022-12-11T05:27:00.501Z,54.0
2022-12-11T05:28:00.440Z,53.8
2022-12-11T05:29:00.614Z,53.7
2022-12-11T05:30:00.516Z,53.7
2022-12-11T05:31:00.576Z,53.7
2022-12-11T05:32:00.588Z,53.6
2022-12-11T05:33:00.918Z,53.5
2022-12-11T05:34:00.485Z,53.5
2022-12-11T05:35:00.574Z,53.5
2022-12-11T05:36:00.446Z,53.6
2022-12-11T05:37:00.464Z,53.6
2022-12-11T05:38:00.470Z,53.5
2022-12-11T05:39:00.473Z,53.4
2022-12-11T05:40:00.498Z,53.5
2022-12-11T05:41:00.617Z,53.5
2022-12-11T05:42:00.496Z,53.4
2022-12-11T05:43:00.440Z,53.4
2022-12-11T05:44:00.510Z,53.4
2022-12-11T05:45:00.474Z,53.4
2022-12-11T05:46:00.511Z,53.4
2022-12-11T05:47:00.761Z,53.4
2022-12-11T05:48:00.572Z,53.3
2022-12-11T05:49:00.592Z,53.3
2022-12-11T05:50:00.454Z,53.2
2022-12-11T05:51:00.543Z,53.3
2022-12-11T05:52:00.549Z,53.5
2022-12-11T05:53:00.689Z,53.2
2022-12-11T05:54:00.510Z,52.9
2022-12-11T05:55:00.474Z,53.0
2022-12-11T05:56:00.460Z,53.2
2022-12-11T05:57:00.471Z,53.2
2022-12-11T05:58:00.523Z,53.3
2022-12-11T05:59:00.745Z,53.2
2022-12-11T06:00:00.510Z,53.4
2022-12-11T06:01:00.445Z,53.4
2022-12-11T06:02:00.560Z,53.5
2022-12-11T06:03:00.826Z,53.5
2022-12-11T06:04:00.550Z,53.5
2022-12-11T06:05:00.958Z,53.5
2022-12-11T06:06:00.545Z,53.5
2022-12-11T06:07:00.476Z,53.5
2022-12-11T06:08:00.542Z,53.7
2022-12-11T06:09:00.472Z,53.6
2022-12-11T06:10:00.470Z,53.6
2022-12-11T06:11:00.653Z,53.6
2022-12-11T06:12:00.502Z,53.7
2022-12-11T06:13:00.492Z,53.6
2022-12-11T06:14:00.547Z,53.4
2022-12-11T06:15:00.453Z,53.3
2022-12-11T06:16:00.573Z,53.3
2022-12-11T06:17:00.635Z,53.4
2022-12-11T06:18:00.500Z,53.4
2022-12-11T06:19:00.580Z,53.5
2022-12-11T06:20:00.537Z,53.4
2022-12-11T06:21:00.537Z,53.4
2022-12-11T06:22:00.523Z,53.4
2022-12-11T06:23:00.700Z,53.5
2022-12-11T06:24:00.499Z,53.6
2022-12-11T06:25:00.509Z,53.5
2022-12-11T06:26:00.473Z,53.5
2022-12-11T06:27:00.554Z,53.6
2022-12-11T06:28:00.445Z,53.3
2022-12-11T06:29:00.690Z,53.4
2022-12-11T06:30:00.476Z,53.3
2022-12-11T06:31:00.513Z,53.4
2022-12-11T06:32:00.475Z,53.4
2022-12-11T06:33:00.481Z,53.4
2022-12-11T06:34:00.572Z,53.3
2022-12-11T06:35:00.698Z,53.4
2022-12-11T06:36:00.472Z,53.5
2022-12-11T06:37:00.472Z,53.4
2022-12-11T06:38:00.477Z,53.3
2022-12-11T06:39:00.502Z,53.3
2022-12-11T06:40:00.475Z,53.3
2022-12-11T06:41:00.608Z,53.4
2022-12-11T06:42:00.443Z,53.5
2022-12-11T06:43:00.444Z,53.4
2022-12-11T06:44:01.033Z,53.4
2022-12-11T06:45:00.445Z,53.5
2022-12-11T06:46:03.830Z,53.5
2022-12-11T06:47:00.678Z,53.5
2022-12-11T06:48:00.470Z,53.4
2022-12-11T06:49:00.474Z,53.4
2022-12-11T06:50:00.622Z,53.3
2022-12-11T06:51:00.609Z,53.3
2022-12-11T06:52:00.438Z,53.3
2022-12-11T06:53:00.570Z,53.3
2022-12-11T06:54:00.476Z,52.8
2022-12-11T06:55:00.500Z,52.8
2022-12-11T06:56:00.485Z,52.8
2022-12-11T06:57:00.480Z,52.8
2022-12-11T06:58:00.514Z,52.6
2022-12-11T06:59:06.963Z,52.5
2022-12-11T07:00:00.507Z,52.6
2022-12-11T07:01:00.542Z,52.8
2022-12-11T07:02:00.563Z,53.1
2022-12-11T07:03:00.470Z,53.3
2022-12-11T07:04:00.585Z,53.6
2022-12-11T07:05:00.762Z,53.9
2022-12-11T07:06:00.493Z,54.1
2022-12-11T07:07:00.470Z,54.0
2022-12-11T07:08:00.502Z,54.0
2022-12-11T07:09:00.521Z,54.0
2022-12-11T07:10:07.349Z,54.0
2022-12-11T07:11:00.601Z,54.1
2022-12-11T07:12:00.469Z,54.1
2022-12-11T07:13:00.539Z,54.1
2022-12-11T07:14:00.447Z,54.1
2022-12-11T07:15:00.505Z,53.9
2022-12-11T07:16:00.552Z,53.9
2022-12-11T07:17:00.781Z,53.8
2022-12-11T07:18:00.491Z,53.7
2022-12-11T07:19:00.502Z,54.0
2022-12-11T07:20:00.823Z,54.0
2022-12-11T07:21:00.752Z,54.2
2022-12-11T07:22:00.673Z,54.1
2022-12-11T07:23:00.822Z,54.2
2022-12-11T07:24:00.526Z,54.3
2022-12-11T07:25:00.463Z,54.2
2022-12-11T07:26:00.476Z,54.2
2022-12-11T07:27:00.518Z,53.9
2022-12-11T07:28:00.485Z,53.7
2022-12-11T07:29:00.626Z,53.6
2022-12-11T07:30:00.543Z,53.5
2022-12-11T07:31:00.545Z,53.5
2022-12-11T07:32:00.679Z,53.5
2022-12-11T07:33:00.534Z,53.2
2022-12-11T07:34:00.452Z,53.0
2022-12-11T07:35:00.589Z,53.3
2022-12-11T07:36:00.576Z,53.3
2022-12-11T07:37:00.471Z,53.2
2022-12-11T07:38:00.488Z,53.1
2022-12-11T07:39:00.445Z,53.0
2022-12-11T07:40:00.495Z,52.9
2022-12-11T07:41:00.668Z,53.0
2022-12-11T07:42:00.505Z,53.0
2022-12-11T07:43:00.486Z,52.4
2022-12-11T07:44:00.492Z,52.5
2022-12-11T07:45:00.467Z,52.5
2022-12-11T07:46:00.565Z,52.4
2022-12-11T07:47:00.595Z,52.2
2022-12-11T07:48:00.511Z,52.2
2022-12-11T07:49:00.521Z,51.9
2022-12-11T07:50:00.471Z,51.8
2022-12-11T07:51:00.577Z,51.8
2022-12-11T07:52:00.451Z,51.7
2022-12-11T07:53:00.636Z,51.6
2022-12-11T07:54:00.509Z,51.5
2022-12-11T07:55:00.465Z,51.4
2022-12-11T07:56:00.440Z,51.3
2022-12-11T07:57:00.520Z,51.5
2022-12-11T07:58:00.499Z,51.5
2022-12-11T07:59:00.655Z,51.5
2022-12-11T08:00:00.548Z,51.6
2022-12-11T08:01:00.568Z,51.4
2022-12-11T08:02:00.658Z,51.4
2022-12-11T08:03:00.543Z,51.4
2022-12-11T08:04:00.540Z,51.4
2022-12-11T08:05:00.761Z,51.6
2022-12-11T08:06:00.846Z,51.3
2022-12-11T08:07:00.663Z,51.3
2022-12-11T08:08:00.594Z,51.3
2022-12-11T08:09:00.508Z,51.4
2022-12-11T08:10:00.498Z,51.4
2022-12-11T08:11:00.618Z,51.3
2022-12-11T08:12:00.498Z,51.0
2022-12-11T08:13:00.456Z,51.1
2022-12-11T08:14:00.484Z,51.1
2022-12-11T08:15:00.508Z,51.1
2022-12-11T08:16:00.467Z,51.2
2022-12-11T08:17:00.672Z,51.1
2022-12-11T08:18:00.493Z,51.1
2022-12-11T08:19:00.438Z,51.3
2022-12-11T08:20:00.458Z,50.9
2022-12-11T08:21:00.459Z,51.2
2022-12-11T08:22:00.497Z,51.2
2022-12-11T08:23:00.762Z,51.2
2022-12-11T08:24:00.520Z,51.3
2022-12-11T08:25:00.441Z,51.3
2022-12-11T08:26:00.444Z,51.3
2022-12-11T08:27:00.515Z,51.2
2022-12-11T08:28:00.470Z,51.2
2022-12-11T08:29:00.585Z,50.9
2022-12-11T08:30:00.489Z,51.0
2022-12-11T08:31:00.623Z,50.7
2022-12-11T08:32:00.498Z,50.1
2022-12-11T08:33:00.486Z,50.0
2022-12-11T08:34:00.506Z,50.2
2022-12-11T08:35:00.669Z,50.3
2022-12-11T08:36:00.500Z,50.2
2022-12-11T08:37:00.511Z,49.9
2022-12-11T08:38:00.678Z,50.1
2022-12-11T08:39:00.478Z,50.2
2022-12-11T08:40:00.499Z,49.9
2022-12-11T08:41:00.628Z,50.1
2022-12-11T08:42:00.643Z,50.3
2022-12-11T08:43:00.551Z,50.2
2022-12-11T08:44:00.495Z,49.6
2022-12-11T08:45:00.459Z,49.6
2022-12-11T08:46:00.659Z,49.3
2022-12-11T08:47:00.678Z,49.5
2022-12-11T08:48:00.517Z,49.5
2022-12-11T08:49:00.482Z,49.2
2022-12-11T08:50:00.471Z,48.8
2022-12-11T08:51:00.503Z,49.0
2022-12-11T08:52:00.445Z,49.1
2022-12-11T08:53:00.903Z,49.0
2022-12-11T08:54:00.759Z,49.0
2022-12-11T08:55:00.794Z,48.9
2022-12-11T08:56:00.806Z,48.9
2022-12-11T08:57:00.850Z,48.9
2022-12-11T08:58:00.903Z,48.6
2022-12-11T08:59:01.206Z,48.6
2022-12-11T09:00:00.591Z,48.8
2022-12-11T09:01:00.894Z,48.8
2022-12-11T09:02:00.727Z,49.1
2022-12-11T09:03:00.778Z,49.1
2022-12-11T09:04:00.721Z,49.2
2022-12-11T09:05:01.074Z,49.5
2022-12-11T09:06:00.879Z,49.7
2022-12-11T09:07:00.695Z,49.3
2022-12-11T09:08:00.900Z,49.0
2022-12-11T09:09:00.562Z,48.5
2022-12-11T09:10:00.539Z,48.4
2022-12-11T09:11:00.744Z,47.8
2022-12-11T09:12:00.482Z,47.9
2022-12-11T09:13:00.622Z,47.3
2022-12-11T09:14:06.898Z,47.0
2022-12-11T09:15:00.532Z,47.3
2022-12-11T09:16:00.701Z,47.2
2022-12-11T09:17:00.796Z,47.0
2022-12-11T09:18:00.591Z,47.0
2022-12-11T09:19:00.477Z,47.3
2022-12-11T09:20:00.626Z,47.3
2022-12-11T09:21:00.607Z,47.3
2022-12-11T09:22:00.647Z,47.1
2022-12-11T09:23:00.864Z,47.0
2022-12-11T09:24:00.806Z,46.5
2022-12-11T09:25:00.785Z,46.6
2022-12-11T09:26:00.750Z,46.6
2022-12-11T09:27:00.531Z,46.1
2022-12-11T09:28:00.480Z,46.4
2022-12-11T09:29:00.677Z,46.2
2022-12-11T09:30:00.503Z,46.3
2022-12-11T09:31:00.517Z,46.7
2022-12-11T09:32:00.501Z,46.2
2022-12-11T09:33:00.498Z,46.3
2022-12-11T09:34:00.503Z,46.3
2022-12-11T09:35:00.731Z,46.4
2022-12-11T09:36:00.474Z,46.7
2022-12-11T09:37:00.475Z,46.6
2022-12-11T09:38:00.454Z,46.4
2022-12-11T09:39:00.673Z,46.2
2022-12-11T09:40:05.709Z,46.4
2022-12-11T09:41:00.628Z,46.6
2022-12-11T09:42:00.519Z,46.3
2022-12-11T09:43:00.536Z,46.5
2022-12-11T09:44:00.474Z,46.6
2022-12-11T09:45:00.742Z,46.5
2022-12-11T09:46:00.785Z,46.6
2022-12-11T09:47:00.713Z,46.8
2022-12-11T09:48:00.637Z,46.6
2022-12-11T09:49:00.490Z,46.6
2022-12-11T09:50:00.523Z,46.4
2022-12-11T09:51:00.445Z,46.7
2022-12-11T09:52:00.662Z,46.7
2022-12-11T09:53:00.680Z,46.2
2022-12-11T09:54:00.568Z,46.3
2022-12-11T09:55:00.695Z,46.5
2022-12-11T09:56:00.496Z,46.4
2022-12-11T09:57:00.451Z,46.6
2022-12-11T09:58:00.510Z,46.7
2022-12-11T09:59:00.573Z,46.6
2022-12-11T10:00:04.983Z,46.4
2022-12-11T10:01:00.555Z,46.5
2022-12-11T10:02:00.497Z,46.6
2022-12-11T10:03:00.516Z,46.7
2022-12-11T10:04:00.476Z,46.4
2022-12-11T10:05:00.653Z,46.2
2022-12-11T10:06:04.459Z,46.5
2022-12-11T10:07:00.528Z,46.3
2022-12-11T10:08:00.529Z,46.4
2022-12-11T10:09:00.557Z,46.4
2022-12-11T10:10:00.726Z,46.3
2022-12-11T10:11:00.642Z,46.3
2022-12-11T10:12:00.481Z,46.2
2022-12-11T10:13:00.473Z,46.4
2022-12-11T10:14:00.610Z,46.3
2022-12-11T10:15:00.543Z,46.1
2022-12-11T10:16:00.561Z,46.3
2022-12-11T10:17:00.731Z,46.4
2022-12-11T10:18:04.884Z,46.0
2022-12-11T10:19:00.496Z,46.2
2022-12-11T10:20:00.463Z,46.3
2022-12-11T10:21:00.601Z,46.1
2022-12-11T10:22:00.519Z,46.1
2022-12-11T10:23:00.781Z,46.2
2022-12-11T10:24:00.574Z,45.9
2022-12-11T10:25:11.215Z,45.9
2022-12-11T10:26:00.538Z,46.2
2022-12-11T10:27:00.552Z,46.6
2022-12-11T10:28:00.547Z,46.6
2022-12-11T10:29:00.716Z,46.4
2022-12-11T10:30:00.624Z,46.6
2022-12-11T10:31:00.614Z,46.9
2022-12-11T10:32:00.499Z,46.8
2022-12-11T10:33:00.537Z,46.9
2022-12-11T10:34:00.485Z,46.9
2022-12-11T10:35:00.855Z,46.7
2022-12-11T10:36:00.730Z,46.8
2022-12-11T10:37:00.738Z,46.9
2022-12-11T10:38:00.508Z,46.8
2022-12-11T10:39:00.558Z,46.9
2022-12-11T10:40:00.685Z,46.9
2022-12-11T10:41:00.650Z,46.9
2022-12-11T10:42:00.471Z,47.0
2022-12-11T10:43:00.541Z,46.9
2022-12-11T10:44:00.547Z,47.0
2022-12-11T10:45:00.540Z,47.0
2022-12-11T10:46:00.514Z,46.8
2022-12-11T10:47:00.666Z,47.1
2022-12-11T10:48:00.582Z,47.3
2022-12-11T10:49:00.472Z,47.4
2022-12-11T10:50:00.522Z,47.9
2022-12-11T10:51:00.577Z,48.9
2022-12-11T10:52:00.560Z,48.0
2022-12-11T10:53:00.871Z,48.2
2022-12-11T10:54:06.873Z,48.4
2022-12-11T10:55:00.832Z,47.8
2022-12-11T10:56:00.533Z,47.3
2022-12-11T10:57:00.749Z,47.2
2022-12-11T10:58:00.621Z,46.9
2022-12-11T10:59:00.821Z,47.0
2022-12-11T11:00:00.666Z,47.1
2022-12-11T11:01:00.814Z,47.2
2022-12-11T11:02:00.709Z,47.2
2022-12-11T11:03:00.673Z,47.4
2022-12-11T11:04:00.743Z,47.5
2022-12-11T11:05:00.987Z,47.6
2022-12-11T11:06:00.689Z,47.5
2022-12-11T11:07:00.710Z,47.3
2022-12-11T11:08:00.849Z,47.3
2022-12-11T11:09:00.507Z,47.3
2022-12-11T11:10:00.913Z,47.3
2022-12-11T11:11:00.869Z,46.9
2022-12-11T11:12:05.961Z,47.1
2022-12-11T11:13:00.774Z,47.4
2022-12-11T11:14:00.664Z,47.3
2022-12-11T11:15:00.651Z,47.3
2022-12-11T11:16:00.625Z,47.4
2022-12-11T11:17:01.023Z,47.4
2022-12-11T11:18:00.636Z,47.3
2022-12-11T11:19:00.816Z,47.4
2022-12-11T11:20:00.698Z,47.4
2022-12-11T11:21:00.769Z,47.5
2022-12-11T11:22:00.672Z,47.6
2022-12-11T11:23:00.918Z,47.6
2022-12-11T11:24:00.646Z,47.5
2022-12-11T11:25:01.088Z,47.6
2022-12-11T11:26:00.689Z,47.5
2022-12-11T11:27:13.826Z,47.5
2022-12-11T11:28:00.742Z,47.4
2022-12-11T11:29:00.862Z,47.6
2022-12-11T11:30:00.657Z,47.7
2022-12-11T11:31:00.798Z,47.7
2022-12-11T11:32:00.501Z,47.6
2022-12-11T11:33:00.623Z,47.8
2022-12-11T11:34:00.530Z,47.8
2022-12-11T11:35:00.940Z,48.2
2022-12-11T11:36:00.710Z,48.1
2022-12-11T11:37:00.836Z,48.1
2022-12-11T11:38:00.975Z,48.4
2022-12-11T11:39:00.728Z,48.6
2022-12-11T11:40:00.988Z,49.0
2022-12-11T11:41:04.842Z,49.3
2022-12-11T11:42:00.928Z,49.3
2022-12-11T11:43:00.633Z,49.6
2022-12-11T11:44:00.918Z,49.6
2022-12-11T11:45:00.753Z,49.5
2022-12-11T11:46:00.498Z,49.6
2022-12-11T11:47:00.714Z,49.8
2022-12-11T11:48:00.593Z,50.0
2022-12-11T11:49:00.838Z,50.1
2022-12-11T11:50:00.796Z,50.4
2022-12-11T11:51:00.776Z,50.4
2022-12-11T11:52:00.723Z,50.6
2022-12-11T11:53:00.937Z,50.6
2022-12-11T11:54:00.602Z,51.0
2022-12-11T11:55:00.703Z,51.0
2022-12-11T11:56:00.922Z,50.5
2022-12-11T11:57:00.608Z,50.5
2022-12-11T11:58:00.494Z,50.5
2022-12-11T11:59:00.561Z,50.1
2022-12-11T12:00:00.495Z,50.2
2022-12-11T12:01:00.500Z,50.3
2022-12-11T12:02:00.544Z,50.7
2022-12-11T12:03:00.669Z,50.9
2022-12-11T12:04:00.508Z,51.0
2022-12-11T12:05:00.645Z,51.0
2022-12-11T12:06:00.620Z,50.9
2022-12-11T12:07:00.545Z,50.7
2022-12-11T12:08:00.749Z,50.9
2022-12-11T12:09:00.591Z,51.2
2022-12-11T12:10:00.640Z,51.2
2022-12-11T12:11:00.829Z,51.2
2022-12-11T12:12:00.653Z,51.3
2022-12-11T12:13:00.844Z,51.2
2022-12-11T12:14:00.850Z,51.3
2022-12-11T12:15:00.617Z,51.2
2022-12-11T12:16:00.625Z,51.3
2022-12-11T12:17:00.874Z,51.3
2022-12-11T12:18:00.892Z,51.4
2022-12-11T12:19:00.865Z,51.5
2022-12-11T12:20:00.588Z,51.5
2022-12-11T12:21:00.755Z,51.5
2022-12-11T12:22:00.835Z,51.6
2022-12-11T12:23:01.035Z,51.7
2022-12-11T12:24:00.869Z,51.7
2022-12-11T12:25:00.741Z,51.6
2022-12-11T12:26:00.643Z,51.5
2022-12-11T12:27:01.047Z,51.4
2022-12-11T12:28:01.132Z,51.4
2022-12-11T12:29:00.657Z,51.4
2022-12-11T12:30:00.543Z,51.4
2022-12-11T12:31:00.525Z,51.3
2022-12-11T12:32:00.734Z,51.3
2022-12-11T12:33:00.555Z,51.3
2022-12-11T12:34:00.512Z,51.2
2022-12-11T12:35:00.666Z,51.1
2022-12-11T12:36:06.425Z,51.2
2022-12-11T12:37:00.571Z,51.1
2022-12-11T12:38:00.467Z,51.0
2022-12-11T12:39:00.489Z,51.0
2022-12-11T12:40:00.556Z,51.1
2022-12-11T12:41:00.713Z,51.3
2022-12-11T12:42:07.095Z,51.3
2022-12-11T12:43:00.778Z,51.1
2022-12-11T12:44:00.583Z,51.0
2022-12-11T12:45:00.533Z,51.1
2022-12-11T12:46:00.661Z,51.3
2022-12-11T12:47:00.809Z,51.2
2022-12-11T12:48:00.477Z,51.1
2022-12-11T12:49:00.621Z,51.3
2022-12-11T12:50:00.505Z,51.3
2022-12-11T12:51:00.514Z,51.1
2022-12-11T12:52:00.557Z,51.2
2022-12-11T12:53:00.761Z,51.3
2022-12-11T12:54:00.533Z,51.3
2022-12-11T12:55:00.533Z,51.1
2022-12-11T12:56:00.551Z,51.3
2022-12-11T12:57:00.473Z,51.4
2022-12-11T12:58:00.732Z,51.5
2022-12-11T12:59:00.700Z,51.5
2022-12-11T13:00:00.497Z,51.6
2022-12-11T13:01:00.539Z,51.5
2022-12-11T13:02:00.563Z,51.6
2022-12-11T13:03:00.497Z,51.5
2022-12-11T13:04:00.636Z,51.5
2022-12-11T13:05:00.790Z,51.6
2022-12-11T13:06:00.721Z,51.6
2022-12-11T13:07:00.538Z,51.6
2022-12-11T13:08:00.669Z,51.5
2022-12-11T13:09:00.507Z,51.6
2022-12-11T13:10:00.529Z,52.4
2022-12-11T13:11:00.654Z,52.2
2022-12-11T13:12:00.603Z,52.0
2022-12-11T13:13:00.701Z,52.1
2022-12-11T13:14:00.532Z,52.0
2022-12-11T13:15:00.445Z,52.1
2022-12-11T13:16:00.550Z,52.5
2022-12-11T13:17:00.748Z,52.4
2022-12-11T13:18:00.621Z,52.5